sensor_id;sensor_type;location;lat;lon;timestamp;P1;durP1;ratioP1;P2;durP2;ratioP2
13048;SDS011;6591;51.446;5.404;2023-07-22T00:01:45;9.20;;;6.70;;
13048;SDS011;6591;51.446;5.404;2023-07-22T00:04:26;7.60;;;6.78;;
13048;SDS011;6591;51.446;5.404;2023-07-22T00:06:57;6.75;;;6.05;;
13048;SDS011;6591;51.446;5.404;2023-07-22T00:09:33;8.57;;;7.18;;
13048;SDS011;6591;51.446;5.404;2023-07-22T00:12:00;8.60;;;7.28;;
13048;SDS011;6591;51.446;5.404;2023-07-22T00:14:29;8.25;;;7.32;;
13048;SDS011;6591;51.446;5.404;2023-07-22T00:16:56;9.30;;;6.60;;
13048;SDS011;6591;51.446;5.404;2023-07-22T00:19:26;9.35;;;7.53;;
13048;SDS011;6591;51.446;5.404;2023-07-22T00:21:53;8.50;;;6.90;;
13048;SDS011;6591;51.446;5.404;2023-07-22T00:24:21;8.20;;;7.30;;
13048;SDS011;6591;51.446;5.404;2023-07-22T00:26:48;7.90;;;7.10;;
13048;SDS011;6591;51.446;5.404;2023-07-22T00:29:16;7.43;;;6.72;;
13048;SDS011;6591;51.446;5.404;2023-07-22T00:31:43;7.45;;;6.63;;
13048;SDS011;6591;51.446;5.404;2023-07-22T00:34:10;8.43;;;6.97;;
13048;SDS011;6591;51.446;5.404;2023-07-22T00:36:37;8.38;;;7.03;;
13048;SDS011;6591;51.446;5.404;2023-07-22T00:39:04;8.50;;;7.05;;
13048;SDS011;6591;51.446;5.404;2023-07-22T00:41:31;7.40;;;6.60;;
13048;SDS011;6591;51.446;5.404;2023-07-22T00:43:59;9.23;;;7.47;;
13048;SDS011;6591;51.446;5.404;2023-07-22T00:46:26;7.50;;;6.70;;
13048;SDS011;6591;51.446;5.404;2023-07-22T00:48:54;7.82;;;6.82;;
13048;SDS011;6591;51.446;5.404;2023-07-22T00:51:21;7.88;;;6.95;;
13048;SDS011;6591;51.446;5.404;2023-07-22T00:53:48;10.30;;;7.47;;
13048;SDS011;6591;51.446;5.404;2023-07-22T00:56:16;8.15;;;6.88;;
13048;SDS011;6591;51.446;5.404;2023-07-22T00:58:45;9.40;;;6.93;;
13048;SDS011;6591;51.446;5.404;2023-07-22T01:01:12;9.63;;;6.95;;
13048;SDS011;6591;51.446;5.404;2023-07-22T01:03:40;8.30;;;7.03;;
13048;SDS011;6591;51.446;5.404;2023-07-22T01:06:07;8.02;;;6.80;;
13048;SDS011;6591;51.446;5.404;2023-07-22T01:08:38;8.32;;;7.00;;
13048;SDS011;6591;51.446;5.404;2023-07-22T01:11:06;7.65;;;6.72;;
13048;SDS011;6591;51.446;5.404;2023-07-22T01:13:33;7.63;;;6.82;;
13048;SDS011;6591;51.446;5.404;2023-07-22T01:16:00;7.97;;;7.07;;
13048;SDS011;6591;51.446;5.404;2023-07-22T01:18:28;8.23;;;6.38;;
13048;SDS011;6591;51.446;5.404;2023-07-22T01:20:55;7.97;;;6.93;;
13048;SDS011;6591;51.446;5.404;2023-07-22T01:23:22;7.57;;;6.20;;
13048;SDS011;6591;51.446;5.404;2023-07-22T01:25:50;7.70;;;6.60;;
13048;SDS011;6591;51.446;5.404;2023-07-22T01:28:21;7.40;;;6.57;;
13048;SDS011;6591;51.446;5.404;2023-07-22T01:30:49;9.05;;;6.40;;
13048;SDS011;6591;51.446;5.404;2023-07-22T01:33:20;7.28;;;6.35;;
13048;SDS011;6591;51.446;5.404;2023-07-22T01:35:48;8.85;;;6.55;;
13048;SDS011;6591;51.446;5.404;2023-07-22T01:38:21;8.65;;;6.72;;
13048;SDS011;6591;51.446;5.404;2023-07-22T01:40:49;7.18;;;6.25;;
13048;SDS011;6591;51.446;5.404;2023-07-22T01:43:32;7.78;;;6.40;;
13048;SDS011;6591;51.446;5.404;2023-07-22T01:46:00;7.65;;;6.15;;
13048;SDS011;6591;51.446;5.404;2023-07-22T01:48:59;8.45;;;6.53;;
13048;SDS011;6591;51.446;5.404;2023-07-22T01:52:11;7.78;;;6.40;;
13048;SDS011;6591;51.446;5.404;2023-07-22T01:54:39;7.55;;;6.30;;
13048;SDS011;6591;51.446;5.404;2023-07-22T01:57:07;7.22;;;6.45;;
13048;SDS011;6591;51.446;5.404;2023-07-22T01:59:41;8.50;;;6.45;;
13048;SDS011;6591;51.446;5.404;2023-07-22T02:02:08;9.45;;;6.63;;
13048;SDS011;6591;51.446;5.404;2023-07-22T02:04:35;8.35;;;6.90;;
13048;SDS011;6591;51.446;5.404;2023-07-22T02:07:05;7.55;;;6.72;;
13048;SDS011;6591;51.446;5.404;2023-07-22T02:09:33;9.15;;;6.90;;
13048;SDS011;6591;51.446;5.404;2023-07-22T02:12:00;8.55;;;6.50;;
13048;SDS011;6591;51.446;5.404;2023-07-22T02:14:28;8.68;;;6.72;;
13048;SDS011;6591;51.446;5.404;2023-07-22T02:16:55;8.32;;;6.75;;
13048;SDS011;6591;51.446;5.404;2023-07-22T02:19:22;10.20;;;7.30;;
13048;SDS011;6591;51.446;5.404;2023-07-22T02:21:50;8.75;;;7.00;;
13048;SDS011;6591;51.446;5.404;2023-07-22T02:24:17;8.48;;;6.60;;
13048;SDS011;6591;51.446;5.404;2023-07-22T02:26:44;7.45;;;6.45;;
13048;SDS011;6591;51.446;5.404;2023-07-22T02:29:12;8.38;;;6.68;;
13048;SDS011;6591;51.446;5.404;2023-07-22T02:31:39;9.07;;;7.15;;
13048;SDS011;6591;51.446;5.404;2023-07-22T02:34:06;9.45;;;6.80;;
13048;SDS011;6591;51.446;5.404;2023-07-22T02:36:33;8.73;;;7.10;;
13048;SDS011;6591;51.446;5.404;2023-07-22T02:39:00;9.10;;;7.60;;
13048;SDS011;6591;51.446;5.404;2023-07-22T02:41:27;9.05;;;6.68;;
13048;SDS011;6591;51.446;5.404;2023-07-22T02:43:54;7.00;;;6.13;;
13048;SDS011;6591;51.446;5.404;2023-07-22T02:46:22;8.32;;;7.13;;
13048;SDS011;6591;51.446;5.404;2023-07-22T02:48:49;8.13;;;6.40;;
13048;SDS011;6591;51.446;5.404;2023-07-22T02:51:16;8.32;;;7.25;;
13048;SDS011;6591;51.446;5.404;2023-07-22T02:53:43;10.40;;;7.68;;
13048;SDS011;6591;51.446;5.404;2023-07-22T02:56:13;8.52;;;7.28;;
13048;SDS011;6591;51.446;5.404;2023-07-22T02:58:41;8.23;;;6.82;;
13048;SDS011;6591;51.446;5.404;2023-07-22T03:01:08;8.10;;;7.05;;
13048;SDS011;6591;51.446;5.404;2023-07-22T03:03:37;9.65;;;6.97;;
13048;SDS011;6591;51.446;5.404;2023-07-22T03:06:08;8.10;;;6.80;;
13048;SDS011;6591;51.446;5.404;2023-07-22T03:08:36;7.88;;;6.38;;
13048;SDS011;6591;51.446;5.404;2023-07-22T03:11:03;7.60;;;6.07;;
13048;SDS011;6591;51.446;5.404;2023-07-22T03:13:31;7.20;;;6.35;;
13048;SDS011;6591;51.446;5.404;2023-07-22T03:15:59;8.50;;;6.93;;
13048;SDS011;6591;51.446;5.404;2023-07-22T03:18:30;9.03;;;7.30;;
13048;SDS011;6591;51.446;5.404;2023-07-22T03:20:58;8.20;;;6.77;;
13048;SDS011;6591;51.446;5.404;2023-07-22T03:23:25;9.37;;;6.97;;
13048;SDS011;6591;51.446;5.404;2023-07-22T03:25:52;8.00;;;7.07;;
13048;SDS011;6591;51.446;5.404;2023-07-22T03:28:19;7.47;;;6.50;;
13048;SDS011;6591;51.446;5.404;2023-07-22T03:30:46;8.87;;;7.00;;
13048;SDS011;6591;51.446;5.404;2023-07-22T03:33:13;9.43;;;7.20;;
13048;SDS011;6591;51.446;5.404;2023-07-22T03:35:41;7.93;;;6.73;;
13048;SDS011;6591;51.446;5.404;2023-07-22T03:38:08;9.30;;;7.10;;
13048;SDS011;6591;51.446;5.404;2023-07-22T03:40:35;8.60;;;6.90;;
13048;SDS011;6591;51.446;5.404;2023-07-22T03:43:04;8.30;;;6.78;;
13048;SDS011;6591;51.446;5.404;2023-07-22T03:45:31;9.33;;;6.90;;
13048;SDS011;6591;51.446;5.404;2023-07-22T03:47:59;8.27;;;7.10;;
13048;SDS011;6591;51.446;5.404;2023-07-22T03:50:27;7.97;;;7.03;;
13048;SDS011;6591;51.446;5.404;2023-07-22T03:52:55;8.80;;;6.73;;
13048;SDS011;6591;51.446;5.404;2023-07-22T03:55:22;8.13;;;6.73;;
13048;SDS011;6591;51.446;5.404;2023-07-22T03:57:50;7.90;;;7.10;;
13048;SDS011;6591;51.446;5.404;2023-07-22T04:00:17;10.70;;;7.40;;
13048;SDS011;6591;51.446;5.404;2023-07-22T04:02:48;8.55;;;7.30;;
13048;SDS011;6591;51.446;5.404;2023-07-22T04:05:16;10.97;;;7.23;;
13048;SDS011;6591;51.446;5.404;2023-07-22T04:07:44;10.40;;;7.20;;
13048;SDS011;6591;51.446;5.404;2023-07-22T04:10:15;8.47;;;6.80;;
13048;SDS011;6591;51.446;5.404;2023-07-22T04:12:43;9.53;;;6.77;;
13048;SDS011;6591;51.446;5.404;2023-07-22T04:15:15;8.90;;;7.20;;
13048;SDS011;6591;51.446;5.404;2023-07-22T04:17:48;8.40;;;6.97;;
13048;SDS011;6591;51.446;5.404;2023-07-22T04:20:21;9.80;;;7.27;;
13048;SDS011;6591;51.446;5.404;2023-07-22T04:23:05;8.30;;;6.73;;
13048;SDS011;6591;51.446;5.404;2023-07-22T04:25:39;11.07;;;7.20;;
13048;SDS011;6591;51.446;5.404;2023-07-22T04:28:07;10.53;;;7.40;;
13048;SDS011;6591;51.446;5.404;2023-07-22T04:30:35;9.13;;;7.03;;
13048;SDS011;6591;51.446;5.404;2023-07-22T04:33:04;9.50;;;7.10;;
13048;SDS011;6591;51.446;5.404;2023-07-22T04:35:33;8.90;;;7.20;;
13048;SDS011;6591;51.446;5.404;2023-07-22T04:38:06;7.38;;;6.28;;
13048;SDS011;6591;51.446;5.404;2023-07-22T04:40:34;8.97;;;6.97;;
13048;SDS011;6591;51.446;5.404;2023-07-22T04:43:04;8.70;;;6.93;;
13048;SDS011;6591;51.446;5.404;2023-07-22T04:45:32;8.30;;;6.80;;
13048;SDS011;6591;51.446;5.404;2023-07-22T04:48:01;8.90;;;6.53;;
13048;SDS011;6591;51.446;5.404;2023-07-22T04:50:31;9.20;;;7.25;;
13048;SDS011;6591;51.446;5.404;2023-07-22T04:52:59;9.53;;;6.90;;
13048;SDS011;6591;51.446;5.404;2023-07-22T04:55:26;9.40;;;7.97;;
13048;SDS011;6591;51.446;5.404;2023-07-22T04:57:56;9.57;;;7.17;;
13048;SDS011;6591;51.446;5.404;2023-07-22T05:00:23;8.15;;;7.05;;
13048;SDS011;6591;51.446;5.404;2023-07-22T05:02:50;9.65;;;7.03;;
13048;SDS011;6591;51.446;5.404;2023-07-22T05:05:19;8.10;;;6.32;;
13048;SDS011;6591;51.446;5.404;2023-07-22T05:07:48;9.93;;;7.30;;
13048;SDS011;6591;51.446;5.404;2023-07-22T05:10:15;9.25;;;6.63;;
13048;SDS011;6591;51.446;5.404;2023-07-22T05:12:43;10.88;;;7.00;;
13048;SDS011;6591;51.446;5.404;2023-07-22T05:15:10;8.20;;;7.15;;
13048;SDS011;6591;51.446;5.404;2023-07-22T05:17:38;10.35;;;7.40;;
13048;SDS011;6591;51.446;5.404;2023-07-22T05:20:08;8.13;;;6.68;;
13048;SDS011;6591;51.446;5.404;2023-07-22T05:22:36;8.90;;;7.07;;
13048;SDS011;6591;51.446;5.404;2023-07-22T05:25:05;8.20;;;6.78;;
13048;SDS011;6591;51.446;5.404;2023-07-22T05:27:33;8.35;;;7.30;;
13048;SDS011;6591;51.446;5.404;2023-07-22T05:30:01;7.47;;;6.07;;
13048;SDS011;6591;51.446;5.404;2023-07-22T05:32:32;10.05;;;6.82;;
13048;SDS011;6591;51.446;5.404;2023-07-22T05:34:59;8.43;;;6.90;;
13048;SDS011;6591;51.446;5.404;2023-07-22T05:37:28;9.23;;;6.88;;
13048;SDS011;6591;51.446;5.404;2023-07-22T05:39:55;10.85;;;7.47;;
13048;SDS011;6591;51.446;5.404;2023-07-22T05:42:22;8.70;;;7.38;;
13048;SDS011;6591;51.446;5.404;2023-07-22T05:44:50;8.25;;;7.18;;
13048;SDS011;6591;51.446;5.404;2023-07-22T05:47:17;8.75;;;7.05;;
13048;SDS011;6591;51.446;5.404;2023-07-22T05:49:45;11.25;;;7.15;;
13048;SDS011;6591;51.446;5.404;2023-07-22T05:52:12;8.43;;;6.82;;
13048;SDS011;6591;51.446;5.404;2023-07-22T05:54:39;11.43;;;7.47;;
13048;SDS011;6591;51.446;5.404;2023-07-22T05:57:07;8.18;;;7.18;;
13048;SDS011;6591;51.446;5.404;2023-07-22T05:59:35;10.70;;;7.82;;
13048;SDS011;6591;51.446;5.404;2023-07-22T06:02:05;11.02;;;7.15;;
13048;SDS011;6591;51.446;5.404;2023-07-22T06:04:36;7.63;;;6.75;;
13048;SDS011;6591;51.446;5.404;2023-07-22T06:07:04;8.85;;;7.40;;
13048;SDS011;6591;51.446;5.404;2023-07-22T06:09:33;10.63;;;6.95;;
13048;SDS011;6591;51.446;5.404;2023-07-22T06:12:02;9.82;;;6.82;;
13048;SDS011;6591;51.446;5.404;2023-07-22T06:14:31;14.05;;;7.70;;
13048;SDS011;6591;51.446;5.404;2023-07-22T06:16:59;9.35;;;7.32;;
13048;SDS011;6591;51.446;5.404;2023-07-22T06:19:26;7.38;;;6.50;;
13048;SDS011;6591;51.446;5.404;2023-07-22T06:21:54;7.78;;;6.82;;
13048;SDS011;6591;51.446;5.404;2023-07-22T06:24:21;9.70;;;7.35;;
13048;SDS011;6591;51.446;5.404;2023-07-22T06:26:48;10.63;;;7.28;;
13048;SDS011;6591;51.446;5.404;2023-07-22T06:29:15;9.20;;;6.57;;
13048;SDS011;6591;51.446;5.404;2023-07-22T06:31:42;8.18;;;7.18;;
13048;SDS011;6591;51.446;5.404;2023-07-22T06:34:10;8.77;;;7.45;;
13048;SDS011;6591;51.446;5.404;2023-07-22T06:36:38;9.38;;;7.10;;
13048;SDS011;6591;51.446;5.404;2023-07-22T06:39:05;10.40;;;7.57;;
13048;SDS011;6591;51.446;5.404;2023-07-22T06:41:33;7.93;;;7.03;;
13048;SDS011;6591;51.446;5.404;2023-07-22T06:44:00;9.40;;;6.82;;
13048;SDS011;6591;51.446;5.404;2023-07-22T06:46:27;11.13;;;7.80;;
13048;SDS011;6591;51.446;5.404;2023-07-22T06:48:55;9.15;;;7.20;;
13048;SDS011;6591;51.446;5.404;2023-07-22T06:51:25;9.07;;;7.13;;
13048;SDS011;6591;51.446;5.404;2023-07-22T06:53:52;9.15;;;7.22;;
13048;SDS011;6591;51.446;5.404;2023-07-22T06:56:19;8.20;;;6.72;;
13048;SDS011;6591;51.446;5.404;2023-07-22T06:58:50;11.05;;;7.53;;
13048;SDS011;6591;51.446;5.404;2023-07-22T07:01:17;10.90;;;7.40;;
13048;SDS011;6591;51.446;5.404;2023-07-22T07:03:44;11.68;;;7.15;;
13048;SDS011;6591;51.446;5.404;2023-07-22T07:06:12;9.20;;;6.85;;
13048;SDS011;6591;51.446;5.404;2023-07-22T07:08:39;8.82;;;6.93;;
13048;SDS011;6591;51.446;5.404;2023-07-22T07:11:07;7.88;;;6.45;;
13048;SDS011;6591;51.446;5.404;2023-07-22T07:13:34;9.77;;;6.25;;
13048;SDS011;6591;51.446;5.404;2023-07-22T07:18:54;8.13;;;6.50;;
13048;SDS011;6591;51.446;5.404;2023-07-22T07:21:22;9.90;;;6.80;;
13048;SDS011;6591;51.446;5.404;2023-07-22T07:23:50;9.00;;;6.07;;
13048;SDS011;6591;51.446;5.404;2023-07-22T07:26:19;6.65;;;5.75;;
13048;SDS011;6591;51.446;5.404;2023-07-22T07:28:47;10.90;;;5.90;;
13048;SDS011;6591;51.446;5.404;2023-07-22T07:31:17;9.52;;;5.97;;
13048;SDS011;6591;51.446;5.404;2023-07-22T07:33:44;8.05;;;5.60;;
13048;SDS011;6591;51.446;5.404;2023-07-22T07:36:12;8.13;;;5.93;;
13048;SDS011;6591;51.446;5.404;2023-07-22T07:38:39;7.63;;;5.70;;
13048;SDS011;6591;51.446;5.404;2023-07-22T07:41:06;9.38;;;5.75;;
13048;SDS011;6591;51.446;5.404;2023-07-22T07:43:41;8.63;;;5.82;;
13048;SDS011;6591;51.446;5.404;2023-07-22T07:51:22;11.48;;;5.55;;
13048;SDS011;6591;51.446;5.404;2023-07-22T07:53:51;6.55;;;5.18;;
13048;SDS011;6591;51.446;5.404;2023-07-22T07:56:21;8.88;;;5.95;;
13048;SDS011;6591;51.446;5.404;2023-07-22T07:58:49;9.27;;;5.47;;
13048;SDS011;6591;51.446;5.404;2023-07-22T08:01:23;9.40;;;5.70;;
13048;SDS011;6591;51.446;5.404;2023-07-22T08:03:50;7.45;;;5.50;;
13048;SDS011;6591;51.446;5.404;2023-07-22T08:06:17;6.43;;;5.00;;
13048;SDS011;6591;51.446;5.404;2023-07-22T08:08:47;8.27;;;5.32;;
13048;SDS011;6591;51.446;5.404;2023-07-22T08:11:16;6.65;;;4.88;;
13048;SDS011;6591;51.446;5.404;2023-07-22T08:13:43;6.65;;;5.07;;
13048;SDS011;6591;51.446;5.404;2023-07-22T08:16:12;5.90;;;5.30;;
13048;SDS011;6591;51.446;5.404;2023-07-22T08:18:40;6.60;;;4.90;;
13048;SDS011;6591;51.446;5.404;2023-07-22T08:21:20;9.02;;;5.47;;
13048;SDS011;6591;51.446;5.404;2023-07-22T08:23:48;5.90;;;4.95;;
13048;SDS011;6591;51.446;5.404;2023-07-22T08:26:17;5.78;;;4.35;;
13048;SDS011;6591;51.446;5.404;2023-07-22T08:28:47;7.47;;;4.90;;
13048;SDS011;6591;51.446;5.404;2023-07-22T08:31:19;5.53;;;4.22;;
13048;SDS011;6591;51.446;5.404;2023-07-22T08:33:52;6.07;;;4.53;;
13048;SDS011;6591;51.446;5.404;2023-07-22T08:36:27;7.35;;;4.82;;
13048;SDS011;6591;51.446;5.404;2023-07-22T08:38:58;5.85;;;4.43;;
13048;SDS011;6591;51.446;5.404;2023-07-22T08:41:28;5.90;;;4.30;;
13048;SDS011;6591;51.446;5.404;2023-07-22T08:43:56;5.75;;;4.35;;
13048;SDS011;6591;51.446;5.404;2023-07-22T08:46:47;4.75;;;4.22;;
13048;SDS011;6591;51.446;5.404;2023-07-22T08:49:21;4.20;;;3.70;;
13048;SDS011;6591;51.446;5.404;2023-07-22T08:52:00;5.50;;;4.05;;
13048;SDS011;6591;51.446;5.404;2023-07-22T08:54:31;7.32;;;4.10;;
13048;SDS011;6591;51.446;5.404;2023-07-22T08:57:02;8.07;;;3.90;;
13048;SDS011;6591;51.446;5.404;2023-07-22T08:59:30;4.95;;;3.65;;
13048;SDS011;6591;51.446;5.404;2023-07-22T09:01:58;5.10;;;3.92;;
13048;SDS011;6591;51.446;5.404;2023-07-22T09:04:27;6.43;;;4.30;;
13048;SDS011;6591;51.446;5.404;2023-07-22T09:06:55;5.50;;;4.13;;
13048;SDS011;6591;51.446;5.404;2023-07-22T09:09:24;6.30;;;3.83;;
13048;SDS011;6591;51.446;5.404;2023-07-22T09:11:53;5.32;;;3.88;;
13048;SDS011;6591;51.446;5.404;2023-07-22T09:14:21;6.85;;;3.95;;
13048;SDS011;6591;51.446;5.404;2023-07-22T09:17:03;4.78;;;3.90;;
13048;SDS011;6591;51.446;5.404;2023-07-22T09:19:32;6.32;;;4.07;;
13048;SDS011;6591;51.446;5.404;2023-07-22T09:22:00;6.50;;;3.95;;
13048;SDS011;6591;51.446;5.404;2023-07-22T09:24:28;5.07;;;3.90;;
13048;SDS011;6591;51.446;5.404;2023-07-22T09:26:57;6.20;;;4.10;;
13048;SDS011;6591;51.446;5.404;2023-07-22T09:29:34;4.65;;;3.25;;
13048;SDS011;6591;51.446;5.404;2023-07-22T09:32:03;5.35;;;3.30;;
13048;SDS011;6591;51.446;5.404;2023-07-22T09:34:31;4.88;;;3.40;;
13048;SDS011;6591;51.446;5.404;2023-07-22T09:36:59;4.63;;;3.47;;
13048;SDS011;6591;51.446;5.404;2023-07-22T09:39:27;4.82;;;3.33;;
13048;SDS011;6591;51.446;5.404;2023-07-22T09:41:54;5.22;;;3.42;;
13048;SDS011;6591;51.446;5.404;2023-07-22T09:44:22;4.32;;;2.80;;
13048;SDS011;6591;51.446;5.404;2023-07-22T09:46:49;6.00;;;3.08;;
13048;SDS011;6591;51.446;5.404;2023-07-22T09:49:17;4.20;;;3.22;;
13048;SDS011;6591;51.446;5.404;2023-07-22T09:51:45;5.32;;;3.38;;
13048;SDS011;6591;51.446;5.404;2023-07-22T09:54:29;3.20;;;2.70;;
13048;SDS011;6591;51.446;5.404;2023-07-22T09:57:03;4.57;;;2.80;;
13048;SDS011;6591;51.446;5.404;2023-07-22T09:59:31;4.03;;;2.85;;
13048;SDS011;6591;51.446;5.404;2023-07-22T10:01:59;5.28;;;2.83;;
13048;SDS011;6591;51.446;5.404;2023-07-22T10:04:31;3.53;;;2.75;;
13048;SDS011;6591;51.446;5.404;2023-07-22T10:07:05;4.93;;;3.28;;
13048;SDS011;6591;51.446;5.404;2023-07-22T10:09:37;3.58;;;2.60;;
13048;SDS011;6591;51.446;5.404;2023-07-22T10:12:07;3.75;;;2.78;;
13048;SDS011;6591;51.446;5.404;2023-07-22T10:14:47;3.88;;;2.50;;
13048;SDS011;6591;51.446;5.404;2023-07-22T10:17:36;3.28;;;2.47;;
13048;SDS011;6591;51.446;5.404;2023-07-22T10:20:08;3.47;;;2.20;;
13048;SDS011;6591;51.446;5.404;2023-07-22T10:22:43;3.88;;;2.15;;
13048;SDS011;6591;51.446;5.404;2023-07-22T10:25:15;4.38;;;2.42;;
13048;SDS011;6591;51.446;5.404;2023-07-22T10:27:52;2.88;;;1.70;;
13048;SDS011;6591;51.446;5.404;2023-07-22T10:30:21;2.95;;;2.15;;
13048;SDS011;6591;51.446;5.404;2023-07-22T10:32:51;2.45;;;2.00;;
13048;SDS011;6591;51.446;5.404;2023-07-22T10:38:09;3.47;;;2.00;;
13048;SDS011;6591;51.446;5.404;2023-07-22T10:40:52;3.55;;;1.70;;
13048;SDS011;6591;51.446;5.404;2023-07-22T10:43:27;2.55;;;1.80;;
13048;SDS011;6591;51.446;5.404;2023-07-22T10:45:58;2.33;;;1.67;;
13048;SDS011;6591;51.446;5.404;2023-07-22T10:48:37;3.10;;;1.48;;
13048;SDS011;6591;51.446;5.404;2023-07-22T10:51:12;2.30;;;1.75;;
13048;SDS011;6591;51.446;5.404;2023-07-22T10:56:23;2.10;;;1.63;;
13048;SDS011;6591;51.446;5.404;2023-07-22T10:58:56;2.70;;;1.70;;
13048;SDS011;6591;51.446;5.404;2023-07-22T11:17:30;1.95;;;1.63;;
13048;SDS011;6591;51.446;5.404;2023-07-22T11:19:59;2.20;;;1.67;;
13048;SDS011;6591;51.446;5.404;2023-07-22T11:22:28;2.72;;;1.80;;
13048;SDS011;6591;51.446;5.404;2023-07-22T11:24:56;3.25;;;1.70;;
13048;SDS011;6591;51.446;5.404;2023-07-22T11:27:27;3.58;;;1.70;;
13048;SDS011;6591;51.446;5.404;2023-07-22T11:29:58;3.90;;;2.03;;
13048;SDS011;6591;51.446;5.404;2023-07-22T11:32:26;2.25;;;1.75;;
13048;SDS011;6591;51.446;5.404;2023-07-22T11:34:56;2.33;;;1.50;;
13048;SDS011;6591;51.446;5.404;2023-07-22T11:37:38;2.05;;;1.75;;
13048;SDS011;6591;51.446;5.404;2023-07-22T11:40:11;2.47;;;1.73;;
13048;SDS011;6591;51.446;5.404;2023-07-22T11:42:40;2.08;;;1.60;;
13048;SDS011;6591;51.446;5.404;2023-07-22T11:45:07;5.43;;;1.88;;
13048;SDS011;6591;51.446;5.404;2023-07-22T11:47:35;2.22;;;1.60;;
13048;SDS011;6591;51.446;5.404;2023-07-22T11:50:03;1.85;;;1.58;;
13048;SDS011;6591;51.446;5.404;2023-07-22T11:52:31;2.63;;;1.70;;
13048;SDS011;6591;51.446;5.404;2023-07-22T11:54:59;7.97;;;2.05;;
13048;SDS011;6591;51.446;5.404;2023-07-22T11:57:32;1.65;;;1.50;;
13048;SDS011;6591;51.446;5.404;2023-07-22T12:00:00;3.53;;;1.98;;
13048;SDS011;6591;51.446;5.404;2023-07-22T12:02:30;1.98;;;1.40;;
13048;SDS011;6591;51.446;5.404;2023-07-22T12:05:04;3.45;;;1.80;;
13048;SDS011;6591;51.446;5.404;2023-07-22T12:07:33;2.38;;;1.83;;
13048;SDS011;6591;51.446;5.404;2023-07-22T12:10:03;3.33;;;2.38;;
13048;SDS011;6591;51.446;5.404;2023-07-22T12:12:37;3.88;;;2.00;;
13048;SDS011;6591;51.446;5.404;2023-07-22T12:15:09;1.95;;;1.70;;
13048;SDS011;6591;51.446;5.404;2023-07-22T12:17:45;2.65;;;1.90;;
13048;SDS011;6591;51.446;5.404;2023-07-22T12:20:31;3.03;;;1.90;;
13048;SDS011;6591;51.446;5.404;2023-07-22T12:23:02;2.13;;;1.60;;
13048;SDS011;6591;51.446;5.404;2023-07-22T12:25:31;2.63;;;2.03;;
13048;SDS011;6591;51.446;5.404;2023-07-22T12:27:58;2.85;;;1.85;;
13048;SDS011;6591;51.446;5.404;2023-07-22T12:30:26;3.25;;;1.80;;
13048;SDS011;6591;51.446;5.404;2023-07-22T12:32:54;2.28;;;1.70;;
13048;SDS011;6591;51.446;5.404;2023-07-22T12:35:21;1.50;;;1.25;;
13048;SDS011;6591;51.446;5.404;2023-07-22T12:37:51;1.85;;;1.65;;
13048;SDS011;6591;51.446;5.404;2023-07-22T12:40:19;2.45;;;1.83;;
13048;SDS011;6591;51.446;5.404;2023-07-22T12:42:47;3.40;;;1.83;;
13048;SDS011;6591;51.446;5.404;2023-07-22T12:45:18;3.65;;;1.98;;
13048;SDS011;6591;51.446;5.404;2023-07-22T12:47:49;2.13;;;1.50;;
13048;SDS011;6591;51.446;5.404;2023-07-22T12:50:18;2.33;;;1.58;;
13048;SDS011;6591;51.446;5.404;2023-07-22T12:52:46;2.75;;;2.00;;
13048;SDS011;6591;51.446;5.404;2023-07-22T12:55:13;2.13;;;1.70;;
13048;SDS011;6591;51.446;5.404;2023-07-22T12:57:41;2.55;;;1.65;;
13048;SDS011;6591;51.446;5.404;2023-07-22T13:00:08;2.33;;;1.60;;
13048;SDS011;6591;51.446;5.404;2023-07-22T13:02:37;2.50;;;1.70;;
13048;SDS011;6591;51.446;5.404;2023-07-22T13:05:05;3.28;;;1.70;;
13048;SDS011;6591;51.446;5.404;2023-07-22T13:07:33;4.25;;;1.70;;
13048;SDS011;6591;51.446;5.404;2023-07-22T13:10:04;1.98;;;1.70;;
13048;SDS011;6591;51.446;5.404;2023-07-22T13:12:42;2.00;;;1.63;;
13048;SDS011;6591;51.446;5.404;2023-07-22T13:15:10;2.92;;;1.50;;
13048;SDS011;6591;51.446;5.404;2023-07-22T13:17:37;3.75;;;1.50;;
13048;SDS011;6591;51.446;5.404;2023-07-22T13:20:05;2.13;;;1.50;;
13048;SDS011;6591;51.446;5.404;2023-07-22T13:22:33;1.52;;;1.42;;
13048;SDS011;6591;51.446;5.404;2023-07-22T13:25:02;3.60;;;1.50;;
13048;SDS011;6591;51.446;5.404;2023-07-22T13:27:29;2.45;;;1.58;;
13048;SDS011;6591;51.446;5.404;2023-07-22T13:29:56;1.38;;;1.27;;
13048;SDS011;6591;51.446;5.404;2023-07-22T13:32:23;2.75;;;1.30;;
13048;SDS011;6591;51.446;5.404;2023-07-22T13:34:52;1.48;;;1.38;;
13048;SDS011;6591;51.446;5.404;2023-07-22T13:37:19;1.85;;;1.20;;
13048;SDS011;6591;51.446;5.404;2023-07-22T13:39:47;1.63;;;1.40;;
13048;SDS011;6591;51.446;5.404;2023-07-22T13:42:17;1.67;;;1.30;;
13048;SDS011;6591;51.446;5.404;2023-07-22T13:44:44;1.95;;;1.40;;
13048;SDS011;6591;51.446;5.404;2023-07-22T13:47:17;2.35;;;1.40;;
13048;SDS011;6591;51.446;5.404;2023-07-22T13:49:48;2.65;;;1.65;;
13048;SDS011;6591;51.446;5.404;2023-07-22T13:52:16;2.25;;;1.50;;
13048;SDS011;6591;51.446;5.404;2023-07-22T13:54:43;2.15;;;1.52;;
13048;SDS011;6591;51.446;5.404;2023-07-22T13:57:12;1.88;;;1.45;;
13048;SDS011;6591;51.446;5.404;2023-07-22T13:59:50;1.40;;;1.30;;
13048;SDS011;6591;51.446;5.404;2023-07-22T14:02:17;2.00;;;1.58;;
13048;SDS011;6591;51.446;5.404;2023-07-22T14:04:45;1.30;;;1.20;;
13048;SDS011;6591;51.446;5.404;2023-07-22T14:07:13;1.40;;;1.30;;
13048;SDS011;6591;51.446;5.404;2023-07-22T14:09:41;2.60;;;1.58;;
13048;SDS011;6591;51.446;5.404;2023-07-22T14:12:11;1.58;;;1.48;;
13048;SDS011;6591;51.446;5.404;2023-07-22T14:14:46;2.40;;;1.60;;
13048;SDS011;6591;51.446;5.404;2023-07-22T14:17:13;1.83;;;1.60;;
13048;SDS011;6591;51.446;5.404;2023-07-22T14:19:41;2.25;;;1.50;;
13048;SDS011;6591;51.446;5.404;2023-07-22T14:22:09;2.80;;;1.65;;
13048;SDS011;6591;51.446;5.404;2023-07-22T14:24:36;2.63;;;1.65;;
13048;SDS011;6591;51.446;5.404;2023-07-22T14:27:10;2.42;;;1.60;;
13048;SDS011;6591;51.446;5.404;2023-07-22T14:29:38;2.92;;;1.80;;
13048;SDS011;6591;51.446;5.404;2023-07-22T14:32:08;3.28;;;1.70;;
13048;SDS011;6591;51.446;5.404;2023-07-22T14:34:58;2.67;;;1.83;;
13048;SDS011;6591;51.446;5.404;2023-07-22T14:37:25;2.38;;;1.70;;
13048;SDS011;6591;51.446;5.404;2023-07-22T14:39:53;2.38;;;1.73;;
13048;SDS011;6591;51.446;5.404;2023-07-22T14:42:45;2.58;;;1.77;;
13048;SDS011;6591;51.446;5.404;2023-07-22T14:45:14;4.05;;;2.03;;
13048;SDS011;6591;51.446;5.404;2023-07-22T14:47:41;2.33;;;1.80;;
13048;SDS011;6591;51.446;5.404;2023-07-22T14:50:09;2.83;;;1.65;;
13048;SDS011;6591;51.446;5.404;2023-07-22T14:52:36;2.22;;;1.60;;
13048;SDS011;6591;51.446;5.404;2023-07-22T14:55:04;2.42;;;1.75;;
13048;SDS011;6591;51.446;5.404;2023-07-22T14:57:32;3.55;;;2.00;;
13048;SDS011;6591;51.446;5.404;2023-07-22T14:59:59;2.97;;;1.85;;
13048;SDS011;6591;51.446;5.404;2023-07-22T15:02:26;3.50;;;1.80;;
13048;SDS011;6591;51.446;5.404;2023-07-22T15:04:53;2.38;;;1.70;;
13048;SDS011;6591;51.446;5.404;2023-07-22T15:07:21;1.63;;;1.52;;
13048;SDS011;6591;51.446;5.404;2023-07-22T15:09:48;1.67;;;1.40;;
13048;SDS011;6591;51.446;5.404;2023-07-22T15:12:16;3.25;;;1.83;;
13048;SDS011;6591;51.446;5.404;2023-07-22T15:14:43;3.13;;;1.80;;
13048;SDS011;6591;51.446;5.404;2023-07-22T15:17:10;1.85;;;1.60;;
13048;SDS011;6591;51.446;5.404;2023-07-22T15:19:37;2.92;;;1.55;;
13048;SDS011;6591;51.446;5.404;2023-07-22T15:22:07;2.10;;;1.80;;
13048;SDS011;6591;51.446;5.404;2023-07-22T15:24:35;1.88;;;1.67;;
13048;SDS011;6591;51.446;5.404;2023-07-22T15:27:02;1.70;;;1.40;;
13048;SDS011;6591;51.446;5.404;2023-07-22T15:29:30;2.45;;;1.60;;
13048;SDS011;6591;51.446;5.404;2023-07-22T15:31:58;1.88;;;1.60;;
13048;SDS011;6591;51.446;5.404;2023-07-22T15:34:27;1.55;;;1.45;;
13048;SDS011;6591;51.446;5.404;2023-07-22T15:36:54;2.45;;;1.75;;
13048;SDS011;6591;51.446;5.404;2023-07-22T15:39:22;2.00;;;1.80;;
13048;SDS011;6591;51.446;5.404;2023-07-22T15:41:49;2.67;;;1.90;;
13048;SDS011;6591;51.446;5.404;2023-07-22T15:44:16;2.80;;;2.10;;